createdAt,value
2023-04-02T00:01:01.559Z,2.6
2023-04-02T00:02:10.180Z,2.7
2023-04-02T00:03:18.536Z,2.7
2023-04-02T00:04:26.843Z,2.7
2023-04-02T00:05:35.502Z,2.7
2023-04-02T00:06:43.788Z,2.7
2023-04-02T00:07:52.148Z,2.7
2023-04-02T00:09:00.703Z,2.5
2023-04-02T00:10:09.100Z,2.5
2023-04-02T00:11:17.425Z,2.5
2023-04-02T00:12:26.008Z,3.1
2023-04-02T00:13:34.354Z,3.1
2023-04-02T00:14:42.730Z,3.1
2023-04-02T00:15:51.288Z,3.3
2023-04-02T00:16:59.639Z,3.3
2023-04-02T00:18:08.057Z,3.3
2023-04-02T00:19:16.560Z,3.3
2023-04-02T00:20:24.906Z,3.3
2023-04-02T00:21:33.241Z,3.3
2023-04-02T00:22:41.802Z,3.5
2023-04-02T00:23:50.156Z,3.5
2023-04-02T00:24:58.511Z,3.5
2023-04-02T00:26:07.074Z,2.3
2023-04-02T00:27:15.395Z,2.3
2023-04-02T00:28:23.749Z,2.3
2023-04-02T00:29:32.334Z,0.8
2023-04-02T00:30:40.659Z,0.8
2023-04-02T00:31:49.020Z,0.8
2023-04-02T00:32:57.551Z,1.3
2023-04-02T00:34:05.909Z,1.3
2023-04-02T00:35:14.268Z,1.3
2023-04-02T00:36:22.832Z,0.3
2023-04-02T00:37:31.168Z,0.3
2023-04-02T00:38:39.552Z,0.3
2023-04-02T00:39:48.088Z,0.8
2023-04-02T00:40:56.431Z,0.8
2023-04-02T00:42:04.882Z,0.8
2023-04-02T00:43:13.363Z,0.2
2023-04-02T00:44:21.971Z,0.2
2023-04-02T00:45:30.062Z,0.2
2023-04-02T00:46:38.629Z,0.6
2023-04-02T00:47:46.998Z,0.6
2023-04-02T00:48:55.341Z,0.6
2023-04-02T00:50:03.884Z,0.7
2023-04-02T00:51:12.224Z,0.7
2023-04-02T00:52:20.583Z,0.7
2023-04-02T00:53:29.133Z,0.1
2023-04-02T00:54:37.483Z,0.1
2023-04-02T00:55:45.834Z,0.1
2023-04-02T00:56:54.448Z,0.2
2023-04-02T00:58:02.764Z,0.2
2023-04-02T00:59:11.089Z,0.2
2023-04-02T01:00:19.660Z,0.5
2023-04-02T01:01:28.090Z,0.5
2023-04-02T01:02:36.409Z,0.5
2023-04-02T01:03:45.006Z,0.2
2023-04-02T01:04:53.312Z,0.2
2023-04-02T01:06:01.696Z,0.2
2023-04-02T01:07:10.232Z,0.6
2023-04-02T01:08:18.605Z,0.6
2023-04-02T01:09:26.942Z,0.6
2023-04-02T01:10:35.518Z,0.3
2023-04-02T01:11:43.853Z,0.3
2023-04-02T01:12:52.181Z,0.3
2023-04-02T01:14:00.786Z,1.7
2023-04-02T01:15:09.115Z,1.7
2023-04-02T01:16:17.475Z,1.7
2023-04-02T01:17:26.061Z,1.3
2023-04-02T01:18:34.373Z,1.3
2023-04-02T01:19:42.724Z,1.3
2023-04-02T01:20:51.269Z,1.6
2023-04-02T01:21:59.613Z,1.6
2023-04-02T01:23:08.000Z,1.6
2023-04-02T01:24:16.545Z,1
2023-04-02T01:25:24.892Z,1
2023-04-02T01:26:33.236Z,1
2023-04-02T01:27:41.775Z,1
2023-04-02T01:28:50.164Z,1
2023-04-02T01:29:58.533Z,1
2023-04-02T01:31:07.077Z,0.4
2023-04-02T01:32:15.392Z,0.4
2023-04-02T01:33:23.750Z,0.4
2023-04-02T01:34:32.325Z,1.8
2023-04-02T01:35:40.643Z,1.8
2023-04-02T01:36:48.999Z,1.8
2023-04-02T01:37:57.532Z,0.5
2023-04-02T01:39:05.899Z,0.5
2023-04-02T01:40:14.263Z,0.5
2023-04-02T01:41:22.820Z,1.1
2023-04-02T01:42:31.268Z,1.1
2023-04-02T01:43:39.614Z,1.1
2023-04-02T01:44:48.184Z,0.7
2023-04-02T01:45:56.575Z,0.7
2023-04-02T01:47:04.937Z,0.7
2023-04-02T01:48:13.501Z,1.7
2023-04-02T01:49:21.900Z,1.7
2023-04-02T01:50:30.246Z,1.7
2023-04-02T01:51:38.808Z,0.6
2023-04-02T01:52:47.170Z,0.6
2023-04-02T01:53:55.528Z,0.6
2023-04-02T01:55:04.085Z,0.9
2023-04-02T01:56:12.464Z,0.9
2023-04-02T01:57:20.861Z,0.9
2023-04-02T01:58:29.411Z,0.9
2023-04-02T01:59:37.787Z,0.9
2023-04-02T02:00:46.176Z,0.9
2023-04-02T02:01:54.741Z,0.6
2023-04-02T02:03:03.099Z,0.6
2023-04-02T02:04:11.381Z,0.6
2023-04-02T02:05:19.968Z,0.7
2023-04-02T02:06:28.311Z,0.7
2023-04-02T02:07:36.668Z,0.7
2023-04-02T02:08:45.242Z,1.2
2023-04-02T02:09:53.605Z,1.2
2023-04-02T02:11:01.948Z,1.2
2023-04-02T02:12:10.494Z,0.8
2023-04-02T02:13:18.884Z,0.8
2023-04-02T02:14:27.213Z,0.8
2023-04-02T02:15:35.951Z,1.7
2023-04-02T02:16:44.182Z,1.7
2023-04-02T02:17:52.512Z,1.7
2023-04-02T02:19:01.068Z,1.4
2023-04-02T02:20:09.391Z,1.4
2023-04-02T02:21:17.765Z,1.4
2023-04-02T02:22:26.320Z,1.4
2023-04-02T02:23:34.690Z,1.4
2023-04-02T02:24:43.055Z,1.4
2023-04-02T02:25:51.596Z,1.5
2023-04-02T02:26:59.938Z,1.5
2023-04-02T02:28:08.282Z,1.5
2023-04-02T02:29:16.850Z,1.4
2023-04-02T02:30:25.205Z,1.4
2023-04-02T02:31:33.669Z,1.4
2023-04-02T02:32:42.147Z,1.6
2023-04-02T02:33:50.517Z,1.6
2023-04-02T02:34:58.864Z,1.6
2023-04-02T02:36:07.456Z,1.7
2023-04-02T02:37:15.753Z,1.7
2023-04-02T02:38:24.136Z,1.7
2023-04-02T02:39:32.672Z,1.8
2023-04-02T02:40:41.012Z,1.8
2023-04-02T02:41:49.400Z,1.8
2023-04-02T02:42:57.924Z,1.1
2023-04-02T02:44:06.283Z,1.1
2023-04-02T02:45:14.615Z,1.1
2023-04-02T02:46:23.265Z,1.9
2023-04-02T02:47:31.543Z,1.9
2023-04-02T02:48:39.886Z,1.9
2023-04-02T02:49:48.504Z,1.6
2023-04-02T02:50:56.818Z,1.6
2023-04-02T02:52:05.173Z,1.6
2023-04-02T02:53:13.761Z,1
2023-04-02T02:54:22.102Z,1
2023-04-02T02:55:30.454Z,1
2023-04-02T02:56:39.009Z,1.8
2023-04-02T02:57:47.359Z,1.8
2023-04-02T02:58:55.713Z,1.8
2023-04-02T03:00:04.252Z,1.3
2023-04-02T03:01:12.603Z,1.3
2023-04-02T03:02:20.956Z,1.3
2023-04-02T03:03:29.586Z,1.8
2023-04-02T03:04:37.811Z,1.8
2023-04-02T03:05:46.187Z,1.8
2023-04-02T03:06:54.681Z,1.5
2023-04-02T03:08:03.050Z,1.5
2023-04-02T03:09:11.382Z,1.5
2023-04-02T03:10:19.946Z,1.3
2023-04-02T03:11:28.319Z,1.3
2023-04-02T03:12:36.667Z,1.3
2023-04-02T03:13:45.222Z,1.2
2023-04-02T03:14:53.554Z,1.2
2023-04-02T03:16:01.944Z,1.2
2023-04-02T03:17:10.445Z,0.9
2023-04-02T03:18:18.807Z,0.9
2023-04-02T03:19:27.151Z,0.9
2023-04-02T03:20:35.711Z,0.7
2023-04-02T03:21:44.081Z,0.7
2023-04-02T03:22:52.412Z,0.7
2023-04-02T03:24:00.966Z,1.1
2023-04-02T03:25:09.328Z,1.1
2023-04-02T03:26:17.659Z,1.1
2023-04-02T03:27:26.193Z,2.2
2023-04-02T03:28:34.544Z,2.2
2023-04-02T03:29:42.883Z,2.2
2023-04-02T03:30:51.479Z,0.6
2023-04-02T03:31:59.776Z,0.6
2023-04-02T03:33:08.181Z,0.6
2023-04-02T03:34:16.674Z,0.8
2023-04-02T03:35:25.020Z,0.8
2023-04-02T03:36:33.370Z,0.8
2023-04-02T03:37:41.944Z,0.6
2023-04-02T03:38:50.283Z,0.6
2023-04-02T03:39:58.629Z,0.6
2023-04-02T03:41:07.184Z,1.1
2023-04-02T03:42:15.545Z,1.1
2023-04-02T03:43:23.889Z,1.1
2023-04-02T03:44:32.439Z,1.3
2023-04-02T03:45:40.772Z,1.3
2023-04-02T03:46:49.227Z,1.3
2023-04-02T03:47:57.713Z,0.8
2023-04-02T03:49:06.032Z,0.8
2023-04-02T03:50:14.379Z,0.8
2023-04-02T03:51:22.921Z,1.1
2023-04-02T03:52:31.277Z,1.1
2023-04-02T03:53:39.685Z,1.1
2023-04-02T03:54:53.439Z,0.8
2023-04-02T03:55:56.554Z,0.8
2023-04-02T03:57:04.976Z,0.8
2023-04-02T03:58:13.436Z,1.2
2023-04-02T03:59:21.784Z,1.2
2023-04-02T04:00:30.105Z,1.2
2023-04-02T04:01:38.681Z,0.8
2023-04-02T04:02:47.024Z,0.8
2023-04-02T04:03:55.433Z,0.8
2023-04-02T04:05:03.944Z,1.2
2023-04-02T04:06:12.308Z,1.2
2023-04-02T04:07:20.637Z,1.2
2023-04-02T04:08:29.201Z,1.1
2023-04-02T04:09:37.604Z,1.1
2023-04-02T04:10:45.897Z,1.1
2023-04-02T04:11:54.446Z,1.3
2023-04-02T04:13:02.762Z,1.3
2023-04-02T04:14:11.181Z,1.3
2023-04-02T04:15:19.714Z,2.4
2023-04-02T04:16:28.096Z,2.4
2023-04-02T04:17:36.433Z,2.4
2023-04-02T04:18:44.993Z,1.3
2023-04-02T04:19:53.349Z,1.3
2023-04-02T04:21:01.698Z,1.3
2023-04-02T04:22:10.248Z,1.3
2023-04-02T04:23:18.605Z,1.3
2023-04-02T04:24:26.995Z,1.3
2023-04-02T04:25:35.721Z,1.2
2023-04-02T04:26:43.848Z,1.2
2023-04-02T04:27:52.201Z,1.2
2023-04-02T04:29:00.799Z,1.2
2023-04-02T04:30:09.112Z,1.2
2023-04-02T04:31:17.446Z,1.2
2023-04-02T04:32:26.027Z,1.2
2023-04-02T04:33:34.341Z,1.2
2023-04-02T04:34:42.699Z,1.2
2023-04-02T04:35:51.286Z,1.4
2023-04-02T04:36:59.608Z,1.4
2023-04-02T04:38:07.975Z,1.4
2023-04-02T04:39:16.551Z,1.5
2023-04-02T04:40:24.897Z,1.5
2023-04-02T04:41:33.274Z,1.5
2023-04-02T04:42:41.847Z,1.4
2023-04-02T04:43:50.155Z,1.4
2023-04-02T04:44:58.507Z,1.4
2023-04-02T04:46:07.078Z,1.1
2023-04-02T04:47:15.398Z,1.1
2023-04-02T04:48:23.766Z,1.1
2023-04-02T04:49:32.316Z,1
2023-04-02T04:50:40.653Z,1
2023-04-02T04:51:49.017Z,1
2023-04-02T04:52:57.573Z,1.1
2023-04-02T04:54:05.953Z,1.1
2023-04-02T04:55:15.797Z,1.1
2023-04-02T04:56:22.811Z,1.8
2023-04-02T04:57:31.277Z,1.8
2023-04-02T04:58:39.524Z,1.8
2023-04-02T04:59:48.079Z,1.3
2023-04-02T05:00:56.432Z,1.3
2023-04-02T05:02:04.773Z,1.3
2023-04-02T05:03:13.334Z,1.4
2023-04-02T05:04:21.709Z,1.4
2023-04-02T05:05:30.005Z,1.4
2023-04-02T05:06:38.565Z,1.3
2023-04-02T05:07:46.928Z,1.3
2023-04-02T05:08:55.262Z,1.3
2023-04-02T05:10:03.830Z,1.4
2023-04-02T05:11:12.197Z,1.4
2023-04-02T05:12:20.522Z,1.4
2023-04-02T05:13:29.099Z,1
2023-04-02T05:14:37.459Z,1
2023-04-02T05:15:45.836Z,1
2023-04-02T05:16:54.350Z,0.9
2023-04-02T05:18:02.690Z,0.9
2023-04-02T05:19:11.038Z,0.9
2023-04-02T05:20:19.587Z,1.5
2023-04-02T05:21:27.922Z,1.5
2023-04-02T05:22:36.250Z,1.5
2023-04-02T05:23:44.832Z,2.3
2023-04-02T05:24:53.189Z,2.3
2023-04-02T05:26:01.536Z,2.3
2023-04-02T05:27:10.112Z,1.9
2023-04-02T05:28:18.496Z,1.9
2023-04-02T05:29:26.863Z,1.9
2023-04-02T05:30:35.382Z,1.7
2023-04-02T05:31:43.741Z,1.7
2023-04-02T05:32:52.121Z,1.7
2023-04-02T05:34:00.647Z,3.4
2023-04-02T05:35:09.025Z,3.4
2023-04-02T05:36:17.395Z,3.4
2023-04-02T05:37:25.921Z,1.7
2023-04-02T05:38:34.339Z,1.7
2023-04-02T05:39:42.703Z,1.7
2023-04-02T05:40:51.309Z,1.1
2023-04-02T05:41:59.634Z,1.1
2023-04-02T05:43:07.997Z,1.1
2023-04-02T05:44:16.549Z,0.9
2023-04-02T05:45:24.950Z,0.9
2023-04-02T05:46:33.353Z,0.9
2023-04-02T05:47:41.918Z,0.8
2023-04-02T05:48:50.226Z,0.8
2023-04-02T05:49:58.582Z,0.8
2023-04-02T05:51:07.162Z,1.7
2023-04-02T05:52:15.470Z,1.7
2023-04-02T05:53:23.844Z,1.7
2023-04-02T05:54:32.364Z,0.9
2023-04-02T05:55:40.712Z,0.9
2023-04-02T05:56:49.079Z,0.9
2023-04-02T05:58:14.027Z,1.4
2023-04-02T05:59:05.938Z,1.4
2023-04-02T06:00:14.324Z,1.4
2023-04-02T06:01:22.948Z,1
2023-04-02T06:02:31.383Z,1
2023-04-02T06:03:39.645Z,1
2023-04-02T06:04:48.148Z,1.9
2023-04-02T06:05:56.513Z,1.9
2023-04-02T06:07:04.860Z,1.9
2023-04-02T06:08:13.417Z,2.3
2023-04-02T06:09:21.768Z,2.3
2023-04-02T06:10:30.104Z,2.3
2023-04-02T06:11:38.652Z,5.4
2023-04-02T06:12:47.028Z,5.4
2023-04-02T06:13:55.386Z,5.4
2023-04-02T06:15:03.914Z,8
2023-04-02T06:16:12.298Z,8
2023-04-02T06:17:20.665Z,8
2023-04-02T06:18:29.166Z,3.1
2023-04-02T06:19:37.529Z,3.1
2023-04-02T06:20:45.911Z,3.1
2023-04-02T06:21:54.449Z,2.9
2023-04-02T06:23:02.798Z,2.9
2023-04-02T06:24:11.163Z,2.9
2023-04-02T06:25:19.738Z,2.2
2023-04-02T06:26:28.062Z,2.2
2023-04-02T06:27:36.381Z,2.2
2023-04-02T06:28:44.966Z,2.5
2023-04-02T06:29:53.298Z,2.5
2023-04-02T06:31:01.667Z,2.5
2023-04-02T06:32:10.199Z,2.4
2023-04-02T06:33:18.582Z,2.4
2023-04-02T06:34:26.886Z,2.4
2023-04-02T06:35:35.620Z,3.3
2023-04-02T06:36:43.801Z,3.3
2023-04-02T06:37:52.124Z,3.3
2023-04-02T06:39:00.701Z,2.7
2023-04-02T06:40:09.025Z,2.7
2023-04-02T06:41:17.402Z,2.7
2023-04-02T06:42:25.986Z,2.4
2023-04-02T06:43:34.334Z,2.4
2023-04-02T06:44:42.654Z,2.4
2023-04-02T06:45:51.245Z,2.3
2023-04-02T06:46:59.586Z,2.3
2023-04-02T06:48:07.995Z,2.3
2023-04-02T06:49:16.516Z,2
2023-04-02T06:50:24.831Z,2
2023-04-02T06:51:33.166Z,2
2023-04-02T06:52:41.714Z,2.2
2023-04-02T06:53:50.069Z,2.2
2023-04-02T06:54:58.403Z,2.2
2023-04-02T06:56:06.958Z,4
2023-04-02T06:57:15.332Z,4
2023-04-02T06:58:23.656Z,4
2023-04-02T06:59:32.204Z,1.5
2023-04-02T07:00:40.576Z,1.5
2023-04-02T07:01:49.066Z,1.5
2023-04-02T07:02:57.496Z,3
2023-04-02T07:04:05.800Z,3
2023-04-02T07:05:14.232Z,3
2023-04-02T07:06:22.730Z,1.4
2023-04-02T07:07:31.066Z,1.4
2023-04-02T07:08:39.411Z,1.4
2023-04-02T07:09:47.959Z,2.9
2023-04-02T07:10:56.311Z,2.9
2023-04-02T07:12:04.645Z,2.9
2023-04-02T07:13:13.197Z,2.5
2023-04-02T07:14:21.537Z,2.5
2023-04-02T07:15:29.880Z,2.5
2023-04-02T07:16:38.452Z,1.5
2023-04-02T07:17:46.870Z,1.5
2023-04-02T07:18:55.173Z,1.5
2023-04-02T07:20:03.726Z,2.6
2023-04-02T07:21:12.110Z,2.6
2023-04-02T07:22:20.444Z,2.6
2023-04-02T07:23:29.017Z,3.2
2023-04-02T07:24:37.377Z,3.2
2023-04-02T07:25:45.730Z,3.2
2023-04-02T07:26:54.276Z,2.6
2023-04-02T07:28:02.635Z,2.6
2023-04-02T07:29:10.997Z,2.6
2023-04-02T07:30:19.568Z,2.4
2023-04-02T07:31:28.006Z,2.4
2023-04-02T07:32:36.278Z,2.4
2023-04-02T07:33:44.819Z,39.799999
2023-04-02T07:34:53.198Z,39.799999
2023-04-02T07:36:01.606Z,39.799999
2023-04-02T07:37:10.117Z,1.5
2023-04-02T07:38:18.446Z,1.5
2023-04-02T07:39:26.834Z,1.5
2023-04-02T07:40:35.452Z,4.2
2023-04-02T07:41:44.165Z,4.2
2023-04-02T07:42:55.421Z,4.2
2023-04-02T07:44:04.035Z,1.6
2023-04-02T07:45:12.352Z,1.6
2023-04-02T07:46:20.754Z,1.6
2023-04-02T07:47:29.273Z,1.5
2023-04-02T07:48:37.608Z,1.5
2023-04-02T07:49:45.958Z,1.5
2023-04-02T07:50:54.556Z,1.4
2023-04-02T07:52:02.912Z,1.4
2023-04-02T07:53:11.284Z,1.4
2023-04-02T07:54:19.836Z,1.7
2023-04-02T07:55:28.161Z,1.7
2023-04-02T07:56:36.504Z,1.7
2023-04-02T07:57:46.774Z,4
2023-04-02T07:58:53.425Z,4
2023-04-02T08:00:01.774Z,4
2023-04-02T08:01:10.299Z,1.3
2023-04-02T08:02:18.742Z,1.3
2023-04-02T08:03:27.678Z,1.3
2023-04-02T08:04:36.234Z,1.7
2023-04-02T08:05:44.549Z,1.7
2023-04-02T08:06:52.899Z,1.7
2023-04-02T08:08:01.489Z,2.8
2023-04-02T08:09:09.833Z,2.8
2023-04-02T08:10:18.145Z,2.8
2023-04-02T08:11:26.717Z,1.4
2023-04-02T08:12:35.048Z,1.4
2023-04-02T08:13:43.437Z,1.4
2023-04-02T08:14:51.982Z,1.3
2023-04-02T08:16:00.322Z,1.3
2023-04-02T08:17:08.655Z,1.3
2023-04-02T08:18:17.228Z,1.6
2023-04-02T08:19:25.623Z,1.6
2023-04-02T08:20:33.965Z,1.6
2023-04-02T08:21:42.507Z,1
2023-04-02T08:22:50.848Z,1
2023-04-02T08:23:59.198Z,1
2023-04-02T08:25:07.782Z,2.5
2023-04-02T08:26:16.120Z,2.5
2023-04-02T08:27:24.440Z,2.5
2023-04-02T08:28:33.000Z,2.8
2023-04-02T08:29:41.328Z,2.8
2023-04-02T08:30:49.685Z,2.8
2023-04-02T08:31:58.211Z,2.5
2023-04-02T08:33:06.616Z,2.5
2023-04-02T08:34:14.931Z,2.5
2023-04-02T08:35:23.484Z,2.8
2023-04-02T08:36:31.833Z,2.8
2023-04-02T08:37:40.177Z,2.8
2023-04-02T08:38:48.718Z,1.8
2023-04-02T08:39:57.071Z,1.8
2023-04-02T08:41:05.420Z,1.8
2023-04-02T08:42:13.963Z,2.3
2023-04-02T08:43:23.511Z,2.3
2023-04-02T08:44:30.644Z,2.3
2023-04-02T08:45:39.312Z,2.5
2023-04-02T08:46:47.537Z,2.5
2023-04-02T08:47:55.995Z,2.5
2023-04-02T08:49:04.471Z,5
2023-04-02T08:50:12.823Z,5
2023-04-02T08:51:21.166Z,5
2023-04-02T08:52:29.701Z,4.3
2023-04-02T08:53:38.042Z,4.3
2023-04-02T08:54:46.381Z,4.3
2023-04-02T08:55:54.930Z,5.6
2023-04-02T08:57:03.369Z,5.6
2023-04-02T08:58:11.615Z,5.6
2023-04-02T08:59:20.196Z,4.2
2023-04-02T09:00:28.518Z,4.2
2023-04-02T09:01:36.883Z,4.2
2023-04-02T09:02:45.442Z,3.8
2023-04-02T09:03:53.741Z,3.8
2023-04-02T09:05:02.094Z,3.8
2023-04-02T09:06:10.641Z,6.9
2023-04-02T09:07:18.972Z,6.9
2023-04-02T09:08:27.324Z,6.9
2023-04-02T09:09:35.878Z,3.7
2023-04-02T09:10:44.219Z,3.7
2023-04-02T09:11:52.564Z,3.7
2023-04-02T09:13:01.123Z,2.7
2023-04-02T09:14:09.440Z,2.7
2023-04-02T09:15:17.777Z,2.7
2023-04-02T09:16:26.348Z,3.2
2023-04-02T09:17:39.794Z,3.2
2023-04-02T09:18:43.026Z,3.2
2023-04-02T09:19:51.544Z,3.1
2023-04-02T09:20:59.900Z,3.1
2023-04-02T09:22:08.264Z,3.1
2023-04-02T09:23:16.848Z,3
2023-04-02T09:24:25.182Z,3
2023-04-02T09:25:33.955Z,3
2023-04-02T09:26:42.090Z,3
2023-04-02T09:27:50.418Z,3
2023-04-02T09:28:58.802Z,3
2023-04-02T09:30:07.322Z,2.6
2023-04-02T09:31:15.666Z,2.6
2023-04-02T09:32:24.036Z,2.6
2023-04-02T09:33:32.549Z,3.2
2023-04-02T09:34:40.884Z,3.2
2023-04-02T09:35:49.234Z,3.2
2023-04-02T09:36:57.783Z,2.1
2023-04-02T09:38:06.110Z,2.1
2023-04-02T09:39:14.481Z,2.1
2023-04-02T09:40:23.044Z,3.2
2023-04-02T09:41:31.369Z,3.2
2023-04-02T09:42:39.723Z,3.2
2023-04-02T09:43:48.298Z,2.5
2023-04-02T09:44:56.661Z,2.5
2023-04-02T09:46:04.976Z,2.5
2023-04-02T09:47:13.531Z,3.1
2023-04-02T09:48:21.882Z,3.1
2023-04-02T09:49:30.208Z,3.1
2023-04-02T09:50:38.766Z,2.6
2023-04-02T09:51:47.113Z,2.6
2023-04-02T09:52:55.445Z,2.6
2023-04-02T09:54:04.076Z,3.3
2023-04-02T09:55:12.346Z,3.3
2023-04-02T09:56:20.694Z,3.3
2023-04-02T09:57:29.328Z,6.2
2023-04-02T09:58:37.584Z,6.2
2023-04-02T09:59:45.916Z,6.2
2023-04-02T10:00:54.533Z,5.1
2023-04-02T10:02:02.775Z,5.1
2023-04-02T10:03:11.133Z,5.1
2023-04-02T10:04:19.689Z,2.4
2023-04-02T10:05:39.778Z,2.4
2023-04-02T10:06:36.373Z,2.4
2023-04-02T10:07:44.877Z,3
2023-04-02T10:08:53.248Z,3
2023-04-02T10:10:01.603Z,3
2023-04-02T10:11:10.150Z,2.4
2023-04-02T10:12:18.489Z,2.4
2023-04-02T10:13:26.829Z,2.4
2023-04-02T10:14:35.367Z,4.3
2023-04-02T10:15:43.714Z,4.3
2023-04-02T10:16:52.154Z,4.3
2023-04-02T10:18:00.603Z,4.6
2023-04-02T10:19:08.906Z,4.6
2023-04-02T10:20:17.281Z,4.6
2023-04-02T10:21:25.815Z,7.2
2023-04-02T10:22:34.161Z,7.2
2023-04-02T10:23:42.523Z,7.2
2023-04-02T10:24:51.057Z,40.900002
2023-04-02T10:25:59.403Z,40.900002
2023-04-02T10:27:07.749Z,40.900002
2023-04-02T10:28:16.314Z,56
2023-04-02T10:29:24.660Z,56
2023-04-02T10:30:33.024Z,56
2023-04-02T10:31:41.530Z,55.900002
2023-04-02T10:32:49.927Z,55.900002
2023-04-02T10:33:58.227Z,55.900002
2023-04-02T10:35:06.763Z,31.700001
2023-04-02T10:36:15.172Z,31.700001
2023-04-02T10:37:23.436Z,31.700001
2023-04-02T10:38:31.983Z,43.799999
2023-04-02T10:39:40.324Z,43.799999
2023-04-02T10:40:48.659Z,43.799999
2023-04-02T10:41:57.221Z,21.700001
2023-04-02T10:43:05.539Z,21.700001
2023-04-02T10:44:19.843Z,21.700001
2023-04-02T10:45:22.449Z,58.599998
2023-04-02T10:46:30.831Z,58.599998
2023-04-02T10:47:39.118Z,58.599998
2023-04-02T10:48:47.710Z,22.5
2023-04-02T10:49:56.017Z,22.5
2023-04-02T10:51:04.331Z,22.5
2023-04-02T10:52:12.913Z,52.200001
2023-04-02T10:53:21.243Z,52.200001
2023-04-02T10:54:29.556Z,52.200001
2023-04-02T10:55:38.094Z,12.3
2023-04-02T10:56:50.871Z,12.3
2023-04-02T10:57:54.780Z,12.3
2023-04-02T10:59:03.328Z,25.700001
2023-04-02T11:00:11.716Z,25.700001
2023-04-02T11:01:20.034Z,25.700001
2023-04-02T11:02:28.590Z,8.7
2023-04-02T11:03:39.363Z,8.7
2023-04-02T11:04:47.526Z,8.7
2023-04-02T11:05:56.107Z,8
2023-04-02T11:07:13.631Z,8
2023-04-02T11:08:12.746Z,8
2023-04-02T11:09:21.320Z,8.4
2023-04-02T11:10:29.621Z,8.4
2023-04-02T11:11:37.964Z,8.4
2023-04-02T11:12:46.545Z,7.2
2023-04-02T11:13:54.877Z,7.2
2023-04-02T11:15:03.218Z,7.2
2023-04-02T11:16:11.768Z,9.5
2023-04-02T11:17:20.271Z,9.5
2023-04-02T11:18:28.558Z,9.5
2023-04-02T11:19:37.094Z,6.5
2023-04-02T11:20:45.446Z,6.5
2023-04-02T11:21:59.107Z,6.5
2023-04-02T11:23:02.295Z,6.6
2023-04-02T11:24:10.655Z,6.6
2023-04-02T11:25:19.004Z,6.6
2023-04-02T11:26:27.546Z,7.3
2023-04-02T11:27:35.888Z,7.3
2023-04-02T11:28:44.233Z,7.3
2023-04-02T11:29:52.768Z,5.1
2023-04-02T11:31:01.136Z,5.1
2023-04-02T11:32:09.451Z,5.1
2023-04-02T11:33:20.844Z,6
2023-04-02T11:34:26.346Z,6
2023-04-02T11:35:34.828Z,6
2023-04-02T11:36:43.271Z,3.6
2023-04-02T11:37:51.572Z,3.6
2023-04-02T11:39:10.966Z,3.6
2023-04-02T11:40:08.481Z,3.9
2023-04-02T11:41:16.804Z,3.9
2023-04-02T11:42:25.146Z,3.9
2023-04-02T11:43:33.725Z,3.9
2023-04-02T11:44:42.050Z,3.9
2023-04-02T11:45:53.292Z,3.9
2023-04-02T11:46:58.952Z,3.7
2023-04-02T11:48:07.272Z,3.7
2023-04-02T11:49:15.644Z,3.7
2023-04-02T11:50:24.203Z,5.1
2023-04-02T11:51:32.552Z,5.1
2023-04-02T11:52:40.912Z,5.1
2023-04-02T11:53:49.462Z,2.9
2023-04-02T11:54:57.795Z,2.9
2023-04-02T11:56:06.141Z,2.9
2023-04-02T11:57:14.748Z,3.9
2023-04-02T11:58:23.050Z,3.9
2023-04-02T11:59:31.403Z,3.9
2023-04-02T12:00:40.065Z,3
2023-04-02T12:01:48.462Z,3
2023-04-02T12:02:56.815Z,3
2023-04-02T12:04:05.354Z,2.7
2023-04-02T12:05:13.713Z,2.7
2023-04-02T12:06:22.035Z,2.7
2023-04-02T12:07:30.585Z,3.5
2023-04-02T12:08:47.433Z,3.5
2023-04-02T12:09:47.271Z,3.5
2023-04-02T12:10:55.828Z,3.4
2023-04-02T12:12:04.164Z,3.4
2023-04-02T12:13:12.527Z,3.4
2023-04-02T12:14:21.084Z,3.5
2023-04-02T12:15:29.448Z,3.5
2023-04-02T12:16:37.809Z,3.5
2023-04-02T12:17:46.378Z,6.2
2023-04-02T12:18:54.770Z,6.2
2023-04-02T12:20:05.210Z,6.2
2023-04-02T12:21:11.631Z,4.4
2023-04-02T12:22:19.978Z,4.4
2023-04-02T12:23:28.306Z,4.4
2023-04-02T12:24:36.892Z,4.6
2023-04-02T12:25:45.209Z,4.6
2023-04-02T12:26:53.537Z,4.6
2023-04-02T12:28:02.082Z,4.3
2023-04-02T12:29:10.441Z,4.3
2023-04-02T12:30:18.789Z,4.3
2023-04-02T12:31:27.353Z,3.4
2023-04-02T12:32:35.710Z,3.4
2023-04-02T12:33:44.002Z,3.4
2023-04-02T12:34:52.573Z,4.4
2023-04-02T12:36:00.937Z,4.4
2023-04-02T12:37:09.246Z,4.4
2023-04-02T12:38:17.794Z,5.6
2023-04-02T12:39:28.233Z,5.6
2023-04-02T12:40:34.795Z,5.6
2023-04-02T12:41:43.013Z,3.5
2023-04-02T12:42:51.340Z,3.5
2023-04-02T12:43:59.686Z,3.5
2023-04-02T12:45:08.211Z,4
2023-04-02T12:46:16.576Z,4
2023-04-02T12:47:24.896Z,4
2023-04-02T12:48:33.443Z,4.1
2023-04-02T12:49:41.786Z,4.1
2023-04-02T12:50:50.114Z,4.1
2023-04-02T12:51:58.690Z,4.1
2023-04-02T12:53:07.017Z,4.1
2023-04-02T12:54:15.365Z,4.1
2023-04-02T12:55:23.890Z,2.9
2023-04-02T12:56:32.259Z,2.9
2023-04-02T12:57:40.691Z,2.9
2023-04-02T12:58:49.096Z,4.1
2023-04-02T12:59:57.435Z,4.1
2023-04-02T13:01:05.787Z,4.1
2023-04-02T13:02:14.318Z,6.2
2023-04-02T13:03:22.723Z,6.2
2023-04-02T13:04:31.013Z,6.2
2023-04-02T13:05:39.570Z,3.4
2023-04-02T13:06:47.903Z,3.4
2023-04-02T13:07:56.235Z,3.4
2023-04-02T13:09:04.785Z,5
2023-04-02T13:10:13.126Z,5
2023-04-02T13:11:21.466Z,5
2023-04-02T13:12:30.031Z,4.7
2023-04-02T13:13:38.357Z,4.7
2023-04-02T13:14:46.696Z,4.7
2023-04-02T13:15:55.259Z,3.5
2023-04-02T13:17:03.579Z,3.5
2023-04-02T13:18:11.914Z,3.5
2023-04-02T13:19:20.469Z,3.9
2023-04-02T13:20:28.812Z,3.9
2023-04-02T13:21:37.161Z,3.9
2023-04-02T13:22:45.710Z,5.3
2023-04-02T13:23:54.069Z,5.3
2023-04-02T13:25:02.396Z,5.3
2023-04-02T13:26:10.948Z,7.8
2023-04-02T13:27:19.692Z,7.8
2023-04-02T13:28:27.659Z,7.8
2023-04-02T13:29:36.232Z,6.6
2023-04-02T13:30:44.519Z,6.6
2023-04-02T13:31:52.945Z,6.6
2023-04-02T13:33:01.443Z,6.1
2023-04-02T13:34:09.763Z,6.1
2023-04-02T13:35:18.114Z,6.1
2023-04-02T13:36:26.676Z,7.5
2023-04-02T13:37:35.023Z,7.5
2023-04-02T13:38:43.346Z,7.5
2023-04-02T13:39:51.888Z,5.8
2023-04-02T13:41:00.221Z,5.8
2023-04-02T13:42:08.557Z,5.8
2023-04-02T13:43:17.126Z,5.6
2023-04-02T13:44:25.492Z,5.6
2023-04-02T13:45:33.817Z,5.6
2023-04-02T13:46:42.351Z,5.8
2023-04-02T13:47:50.740Z,5.8
2023-04-02T13:48:59.040Z,5.8
2023-04-02T13:50:07.586Z,5.2
2023-04-02T13:51:15.919Z,5.2
2023-04-02T13:52:24.254Z,5.2
2023-04-02T13:53:32.828Z,5.6
2023-04-02T13:54:41.161Z,5.6
2023-04-02T13:55:49.484Z,5.6
2023-04-02T13:56:58.065Z,7.9
2023-04-02T13:58:06.369Z,7.9
2023-04-02T13:59:14.705Z,7.9
2023-04-02T14:00:23.276Z,7.3
2023-04-02T14:01:31.637Z,7.3
2023-04-02T14:02:39.955Z,7.3
2023-04-02T14:03:48.489Z,6.3
2023-04-02T14:04:56.835Z,6.3
2023-04-02T14:06:05.168Z,6.3
2023-04-02T14:07:13.729Z,7.3
2023-04-02T14:08:22.076Z,7.3
2023-04-02T14:09:30.427Z,7.3
2023-04-02T14:10:38.978Z,4.7
2023-04-02T14:11:47.373Z,4.7
2023-04-02T14:12:55.700Z,4.7
2023-04-02T14:14:04.276Z,20.9
2023-04-02T14:15:12.648Z,20.9
2023-04-02T14:16:21.052Z,20.9
2023-04-02T14:17:29.603Z,20.799999
2023-04-02T14:18:37.910Z,20.799999
2023-04-02T14:19:46.283Z,20.799999
2023-04-02T14:20:54.894Z,6.7
2023-04-02T14:22:03.241Z,6.7
2023-04-02T14:23:11.601Z,6.7
2023-04-02T14:24:20.175Z,5.9
2023-04-02T14:25:28.508Z,5.9
2023-04-02T14:26:36.877Z,5.9
2023-04-02T14:27:45.430Z,6.9
2023-04-02T14:28:53.803Z,6.9
2023-04-02T14:30:02.201Z,6.9
2023-04-02T14:31:10.746Z,5.1
2023-04-02T14:32:19.083Z,5.1
2023-04-02T14:33:27.429Z,5.1
2023-04-02T14:34:35.984Z,5.6
2023-04-02T14:35:44.390Z,5.6
2023-04-02T14:36:52.706Z,5.6
2023-04-02T14:38:01.265Z,6.1
2023-04-02T14:39:09.644Z,6.1
2023-04-02T14:40:17.960Z,6.1
2023-04-02T14:41:26.532Z,4.7
2023-04-02T14:42:34.893Z,4.7
2023-04-02T14:43:43.250Z,4.7
2023-04-02T14:44:51.842Z,7.5
2023-04-02T14:46:00.244Z,7.5
2023-04-02T14:47:08.538Z,7.5
2023-04-02T14:48:17.113Z,9.3
2023-04-02T14:49:25.430Z,9.3
2023-04-02T14:50:33.942Z,9.3
2023-04-02T14:51:42.293Z,6.7
2023-04-02T14:52:50.632Z,6.7
2023-04-02T14:53:58.977Z,6.7
2023-04-02T14:55:07.535Z,6.5
2023-04-02T14:56:15.877Z,6.5
2023-04-02T14:57:24.289Z,6.5
2023-04-02T14:58:32.791Z,8.8
2023-04-02T14:59:41.106Z,8.8
2023-04-02T15:00:49.445Z,8.8
2023-04-02T15:01:58.081Z,7.2
2023-04-02T15:03:06.485Z,7.2
2023-04-02T15:04:14.693Z,7.2
2023-04-02T15:05:23.203Z,5.5
2023-04-02T15:06:31.547Z,5.5
2023-04-02T15:39:59.565Z,0
2023-04-02T15:41:07.854Z,0
2023-04-02T15:42:16.220Z,0
2023-04-02T15:43:24.751Z,7.4
2023-04-02T15:44:33.079Z,7.4
2023-04-02T15:45:41.440Z,7.4
2023-04-02T15:46:49.957Z,5.9
2023-04-02T15:47:58.323Z,5.9
2023-04-02T15:49:06.630Z,5.9
2023-04-02T15:50:15.161Z,5.8
2023-04-02T15:51:23.509Z,5.8
2023-04-02T15:52:31.835Z,5.8
2023-04-02T15:53:40.409Z,5.7
2023-04-02T15:54:48.713Z,5.7
2023-04-02T15:55:57.069Z,5.7
2023-04-02T15:57:05.623Z,6.3
2023-04-02T15:58:13.913Z,6.3
2023-04-02T15:59:22.277Z,6.3
2023-04-02T16:00:30.867Z,5.9
2023-04-02T16:01:39.192Z,5.9
2023-04-02T16:02:47.555Z,5.9
2023-04-02T16:03:56.086Z,4.4
2023-04-02T16:05:04.363Z,4.4
2023-04-02T16:06:12.693Z,4.4
2023-04-02T16:07:21.256Z,5.2
2023-04-02T16:08:29.597Z,5.2
2023-04-02T16:09:37.952Z,5.2
2023-04-02T16:10:46.590Z,4.9
2023-04-02T16:11:54.842Z,4.9
2023-04-02T16:13:03.177Z,4.9